Ghotki Weather



Ghotki's Current Weather

Temprature 25o haze

haze

Rain: 0 %

Min Temprature25o
Max Temprature25o
Humidity53
Wind Speed2.28 m/h
Sun Rise06:03:47
Sun Set18:44:17
Current Time: 09-Apr-2020 02:05:13
Lat/Lon: 28.01, 69.32




Ghotki's Geo Location



Ghotki's Weather Forecast

Time Overall Temp Min Temp Max Temp Humidity Wind Speed Rain
09-Apr-2020 (Thu)
05:00:00 scattered clouds 24.310 24.310 25.710 22 2.07 m/h 0 %
08:00:00 clear sky 29.380 29.380 30.430 17 3.64 m/h 0 %
11:00:00 clear sky 35.700 35.700 36.400 12 4.04 m/h 0 %
14:00:00 broken clouds 38.600 38.600 38.950 9 3.76 m/h 0 %
17:00:00 scattered clouds 39.420 39.420 39.420 8 2.82 m/h 0 %
20:00:00 broken clouds 33.960 33.960 33.960 12 0.51 m/h 0 %
23:00:00 broken clouds 30.640 30.640 30.640 14 1.74 m/h 0 %
10-Apr-2020 (Fri)
02:00:00 few clouds 29.930 29.930 29.930 16 3.74 m/h 0 %
05:00:00 few clouds 28.110 28.110 28.110 22 3.34 m/h 0 %
08:00:00 few clouds 32.170 32.170 32.170 18 4.49 m/h 0 %
11:00:00 few clouds 36.400 36.400 36.400 14 5.02 m/h 0 %
14:00:00 few clouds 37.920 37.920 37.920 12 2.57 m/h 0 %
17:00:00 clear sky 38.550 38.550 38.550 11 3.47 m/h 0 %
20:00:00 scattered clouds 32.690 32.690 32.690 16 3.12 m/h 0 %
23:00:00 scattered clouds 30.830 30.830 30.830 18 3.52 m/h 0 %
11-Apr-2020 (Sat)
02:00:00 broken clouds 28.440 28.440 28.440 28 4.52 m/h 0 %
05:00:00 overcast clouds 26.910 26.910 26.910 31 4.6 m/h 0 %
08:00:00 clear sky 30.410 30.410 30.410 25 5.77 m/h 0 %
11:00:00 clear sky 36.660 36.660 36.660 16 4.16 m/h 0 %
14:00:00 clear sky 39.740 39.740 39.740 12 0.98 m/h 0 %
17:00:00 scattered clouds 39.850 39.850 39.850 11 1.73 m/h 0 %
20:00:00 broken clouds 33.470 33.470 33.470 17 1.98 m/h 0 %
23:00:00 broken clouds 32.250 32.250 32.250 18 2.04 m/h 0 %
12-Apr-2020 (Sun)
02:00:00 overcast clouds 30.660 30.660 30.660 20 1.38 m/h 0 %
05:00:00 overcast clouds 28.710 28.710 28.710 22 0.48 m/h 0 %
08:00:00 broken clouds 34.580 34.580 34.580 15 1.12 m/h 0 %
11:00:00 scattered clouds 40.790 40.790 40.790 10 3.98 m/h 0 %
14:00:00 clear sky 43.440 43.440 43.440 8 4.24 m/h 0 %
17:00:00 few clouds 42.670 42.670 42.670 8 4.26 m/h 0 %
20:00:00 overcast clouds 35.410 35.410 35.410 13 1.1 m/h 0 %
23:00:00 overcast clouds 33.640 33.640 33.640 14 0.16 m/h 0 %
13-Apr-2020 (Mon)
02:00:00 broken clouds 32.140 32.140 32.140 13 3.34 m/h 0 %
05:00:00 broken clouds 30.470 30.470 30.470 14 4.09 m/h 0 %
08:00:00 clear sky 33.930 33.930 33.930 13 4.12 m/h 0 %
11:00:00 clear sky 40.750 40.750 40.750 8 2.88 m/h 0 %
14:00:00 clear sky 43.460 43.460 43.460 6 4.88 m/h 0 %
17:00:00 clear sky 42.790 42.790 42.790 6 3.65 m/h 0 %
20:00:00 clear sky 35.260 35.260 35.260 9 1.88 m/h 0 %
23:00:00 clear sky 32.430 32.430 32.430 11 5.63 m/h 0 %
14-Apr-2020 (Tue)
02:00:00 scattered clouds 29.270 29.270 29.270 14 2.96 m/h 0 %

Famous Cities (61)